createdAt,value
2022-11-04T00:03:38.442Z,21.65
2022-11-04T00:08:40.200Z,21.38
2022-11-04T00:13:42.162Z,21.75
2022-11-04T00:18:43.888Z,21.87
2022-11-04T00:24:04.059Z,19.23
2022-11-04T00:29:05.857Z,18.52
2022-11-04T00:34:07.585Z,18.83
2022-11-04T00:39:09.501Z,17.20
2022-11-04T00:44:11.124Z,15.52
2022-11-04T00:49:15.734Z,13.50
2022-11-04T00:54:17.623Z,14.68
2022-11-04T00:59:19.713Z,14.93
2022-11-04T01:04:21.541Z,15.03
2022-11-04T01:09:23.505Z,14.93
2022-11-04T01:14:25.249Z,14.20
2022-11-04T01:19:27.032Z,12.18
2022-11-04T01:24:28.750Z,9.70
2022-11-04T01:29:30.414Z,8.95
2022-11-04T01:34:32.101Z,8.27
2022-11-04T01:39:33.748Z,8.45
2022-11-04T01:44:41.299Z,7.50
2022-11-04T01:49:47.256Z,7.40
2022-11-04T01:54:52.221Z,6.03
2022-11-04T01:59:53.947Z,5.97
2022-11-04T02:04:58.934Z,5.72
2022-11-04T02:10:00.665Z,5.78
2022-11-04T02:15:02.953Z,5.57
2022-11-04T02:20:26.188Z,5.80
2022-11-04T02:30:46.550Z,7.18
2022-11-04T02:36:30.320Z,7.07
2022-11-04T02:41:55.285Z,6.15
2022-11-04T02:47:07.716Z,5.53
2022-11-04T02:52:18.924Z,4.63
2022-11-04T02:57:26.211Z,3.88
2022-11-04T03:02:33.393Z,3.65
2022-11-04T03:07:40.898Z,3.33
2022-11-04T03:12:56.800Z,3.90
2022-11-04T03:18:15.195Z,3.40
2022-11-04T03:23:17.920Z,3.42
2022-11-04T03:33:30.176Z,2.83
2022-11-04T03:38:31.961Z,2.55
2022-11-04T03:43:36.612Z,2.33
2022-11-04T03:48:38.599Z,2.60
2022-11-04T03:53:40.949Z,2.50
2022-11-04T03:59:04.557Z,2.33
2022-11-04T04:04:37.397Z,2.60
2022-11-04T04:09:44.124Z,2.40
2022-11-04T04:14:56.891Z,2.42
2022-11-04T04:20:03.370Z,2.55
2022-11-04T04:25:27.509Z,2.20
2022-11-04T04:30:29.796Z,2.17
2022-11-04T04:35:42.669Z,2.78
2022-11-04T04:41:09.412Z,2.50
2022-11-04T04:46:12.202Z,2.42
2022-11-04T04:56:15.630Z,2.50
2022-11-04T05:01:18.323Z,2.22
2022-11-04T05:06:20.141Z,2.10
2022-11-04T05:11:24.661Z,2.22
2022-11-04T05:16:29.250Z,2.55
2022-11-04T05:21:31.252Z,2.20
2022-11-04T05:26:32.989Z,2.13
2022-11-04T05:31:34.690Z,2.42
2022-11-04T05:36:37.099Z,2.20
2022-11-04T05:41:38.779Z,2.43
2022-11-04T05:46:40.489Z,1.80
2022-11-04T05:51:42.154Z,1.90
2022-11-04T05:56:43.772Z,1.77
2022-11-04T06:01:45.983Z,1.58
2022-11-04T06:06:48.158Z,1.67
2022-11-04T06:11:49.980Z,1.60
2022-11-04T06:16:51.757Z,1.90
2022-11-04T06:21:53.367Z,1.83
2022-11-04T06:26:55.015Z,1.60
2022-11-04T06:31:56.871Z,1.48
2022-11-04T06:36:58.571Z,2.13
2022-11-04T06:42:02.685Z,7.00
2022-11-04T06:47:04.561Z,6.20
2022-11-04T06:52:06.248Z,7.18
2022-11-04T06:57:10.853Z,4.13
2022-11-04T07:02:13.134Z,2.33
2022-11-04T07:07:15.049Z,2.65
2022-11-04T07:12:16.787Z,4.72
2022-11-04T07:17:18.521Z,3.33
2022-11-04T07:22:20.188Z,2.75
2022-11-04T07:27:21.893Z,2.78
2022-11-04T07:32:23.629Z,2.20
2022-11-04T07:37:25.307Z,1.90
2022-11-04T07:42:27.051Z,1.92
2022-11-04T07:47:31.781Z,2.33
2022-11-04T07:52:33.455Z,1.90
2022-11-04T07:57:35.233Z,1.98
2022-11-04T08:02:37.210Z,1.90
2022-11-04T08:07:39.232Z,3.20
2022-11-04T08:12:41.070Z,1.90
2022-11-04T08:17:43.040Z,1.43
2022-11-04T08:22:44.750Z,1.92
2022-11-04T08:27:46.447Z,2.10
2022-11-04T08:32:48.262Z,1.70
2022-11-04T08:37:50.032Z,4.47
2022-11-04T08:42:51.826Z,45.83
2022-11-04T08:47:53.637Z,33.72
2022-11-04T08:52:55.333Z,2.70
2022-11-04T08:57:57.743Z,3.07
2022-11-04T09:02:59.779Z,2.40
2022-11-04T09:08:01.853Z,2.23
2022-11-04T09:13:03.506Z,2.30
2022-11-04T09:18:05.731Z,2.05
2022-11-04T09:23:08.342Z,2.10
2022-11-04T09:28:10.565Z,2.70
2022-11-04T09:33:12.414Z,2.65
2022-11-04T09:38:14.245Z,2.70
2022-11-04T09:43:37.800Z,2.58
2022-11-04T09:48:42.221Z,3.00
2022-11-04T09:53:58.703Z,2.40
2022-11-04T09:59:03.172Z,2.50
2022-11-04T10:04:23.058Z,2.50
2022-11-04T10:09:57.252Z,2.50
2022-11-04T10:15:08.076Z,2.50
2022-11-04T10:20:43.812Z,2.60
2022-11-04T10:25:56.114Z,2.30
2022-11-04T10:30:58.216Z,2.38
2022-11-04T10:36:01.894Z,2.37
2022-11-04T10:41:17.867Z,2.22
2022-11-04T10:46:37.197Z,2.20
2022-11-04T10:51:40.229Z,1.88
2022-11-04T10:56:47.569Z,2.30
2022-11-04T11:01:52.196Z,2.75
2022-11-04T11:06:56.892Z,2.67
2022-11-04T11:12:02.314Z,2.30
2022-11-04T11:17:17.097Z,2.13
2022-11-04T11:22:31.606Z,2.50
2022-11-04T11:27:33.380Z,2.50
2022-11-04T11:32:36.984Z,2.53
2022-11-04T11:37:40.625Z,2.80
2022-11-04T11:42:42.468Z,2.65
2022-11-04T11:47:44.333Z,2.90
2022-11-04T11:52:48.242Z,2.70
2022-11-04T12:09:41.911Z,2.42
2022-11-04T12:14:49.019Z,2.20
2022-11-04T12:20:15.080Z,2.15
2022-11-04T12:25:27.275Z,2.15
2022-11-04T12:30:38.557Z,2.37
2022-11-04T12:35:54.882Z,2.03
2022-11-04T12:41:59.412Z,2.20
2022-11-04T12:47:18.113Z,2.33
2022-11-04T12:52:50.652Z,2.35
2022-11-04T12:58:28.933Z,2.45
2022-11-04T13:03:41.651Z,2.13
2022-11-04T13:08:50.345Z,2.33
2022-11-04T13:14:12.688Z,2.13
2022-11-04T13:19:28.610Z,1.90
2022-11-04T13:24:35.041Z,2.20
2022-11-04T13:29:37.465Z,2.72
2022-11-04T13:35:01.512Z,3.00
2022-11-04T13:40:11.715Z,2.33
2022-11-04T13:45:16.884Z,2.55
2022-11-04T13:50:35.543Z,2.63
2022-11-04T13:55:49.136Z,2.70
2022-11-04T14:01:13.161Z,2.80
2022-11-04T14:06:14.997Z,2.97
2022-11-04T14:11:16.948Z,2.50
2022-11-04T14:16:24.705Z,2.50
2022-11-04T14:21:27.692Z,2.60
2022-11-04T14:26:42.802Z,2.80
2022-11-04T14:31:50.210Z,2.88
2022-11-04T14:36:59.822Z,3.10
2022-11-04T14:42:06.528Z,5.72
2022-11-04T14:47:19.457Z,3.63
2022-11-04T14:57:30.439Z,4.60
2022-11-04T15:02:33.815Z,4.35
2022-11-04T15:07:38.377Z,4.40
2022-11-04T15:12:50.603Z,4.30
2022-11-04T15:17:53.488Z,3.70
2022-11-04T15:27:57.957Z,3.10
2022-11-04T15:33:02.976Z,2.88
2022-11-04T15:38:04.896Z,3.33
2022-11-04T15:43:06.968Z,4.07
2022-11-04T15:48:30.367Z,3.03
2022-11-04T15:53:36.569Z,2.78
2022-11-04T15:58:41.570Z,2.50
2022-11-04T16:03:51.828Z,2.70
2022-11-04T16:09:03.678Z,2.63
2022-11-04T16:14:26.808Z,2.88
2022-11-04T16:19:30.243Z,3.00
2022-11-04T16:24:34.852Z,3.20
2022-11-04T16:29:37.995Z,3.30
2022-11-04T16:34:39.796Z,2.88
2022-11-04T16:39:43.807Z,3.28
2022-11-04T16:44:51.171Z,3.22
2022-11-04T16:49:52.920Z,3.42
2022-11-04T16:54:57.296Z,5.70
2022-11-04T16:59:59.065Z,4.50
2022-11-04T17:05:00.824Z,3.58
2022-11-04T17:10:16.671Z,2.38
2022-11-04T17:15:18.860Z,3.45
2022-11-04T17:20:20.731Z,2.67
2022-11-04T17:25:25.340Z,4.22
2022-11-04T17:30:27.035Z,5.32
2022-11-04T17:35:28.988Z,4.70
2022-11-04T17:40:30.797Z,3.15
2022-11-04T17:45:33.389Z,3.30
2022-11-04T17:50:36.356Z,3.50
2022-11-04T18:00:41.514Z,3.40
2022-11-04T18:05:43.177Z,3.40
2022-11-04T18:10:44.921Z,3.80
2022-11-04T18:15:46.627Z,4.22
2022-11-04T18:20:49.129Z,4.53
2022-11-04T18:25:50.968Z,6.18
2022-11-04T18:30:52.754Z,4.57
2022-11-04T18:35:54.413Z,5.43
2022-11-04T18:40:56.220Z,6.25
2022-11-04T18:45:58.269Z,10.27
2022-11-04T18:51:01.060Z,8.23
2022-11-04T18:56:12.863Z,6.03
2022-11-04T19:01:20.827Z,6.32
2022-11-04T19:06:25.953Z,5.78
2022-11-04T19:11:31.946Z,5.28
2022-11-04T19:16:34.132Z,5.35
2022-11-04T19:21:35.961Z,5.80
2022-11-04T19:26:37.667Z,5.97
2022-11-04T19:31:40.106Z,5.75
2022-11-04T19:36:41.840Z,5.93
2022-11-04T19:42:02.270Z,5.55
2022-11-04T19:47:04.005Z,6.20
2022-11-04T19:52:06.559Z,5.80
2022-11-04T19:57:08.340Z,5.78
2022-11-04T20:02:14.991Z,5.07
2022-11-04T20:07:17.313Z,6.00
2022-11-04T20:12:37.868Z,6.40
2022-11-04T20:17:39.611Z,5.88
2022-11-04T20:22:41.341Z,4.50
2022-11-04T20:27:43.441Z,4.83
2022-11-04T20:32:45.240Z,5.18
2022-11-04T20:37:47.110Z,5.10
2022-11-04T20:42:48.748Z,4.60
2022-11-04T20:47:50.411Z,3.78
2022-11-04T20:52:52.060Z,3.75
2022-11-04T20:57:53.942Z,3.97
2022-11-04T21:02:55.653Z,3.65
2022-11-04T21:07:57.429Z,3.83
2022-11-04T21:12:59.117Z,4.40
2022-11-04T21:18:00.786Z,4.15
2022-11-04T21:23:02.459Z,4.10
2022-11-04T21:28:04.325Z,5.00
2022-11-04T21:33:06.099Z,4.38
2022-11-04T21:38:10.049Z,5.60
2022-11-04T21:43:13.446Z,4.32
2022-11-04T21:48:15.136Z,5.95
2022-11-04T21:53:16.752Z,5.28
2022-11-04T21:58:18.380Z,5.07
2022-11-04T22:03:20.064Z,19.20
2022-11-04T22:08:21.764Z,7.43
2022-11-04T22:13:23.895Z,6.35
2022-11-04T22:18:27.423Z,6.53
2022-11-04T22:23:29.376Z,7.68
2022-11-04T22:28:31.169Z,7.07
2022-11-04T22:33:33.278Z,6.20
2022-11-04T22:38:35.883Z,5.93
2022-11-04T22:43:38.038Z,6.47
2022-11-04T22:48:39.721Z,5.37
2022-11-04T22:53:41.690Z,5.10
2022-11-04T22:58:43.880Z,5.18
2022-11-04T23:03:45.562Z,6.10
2022-11-04T23:08:47.295Z,6.05
2022-11-04T23:14:18.788Z,7.18
2022-11-04T23:19:25.732Z,7.55
2022-11-04T23:24:48.735Z,6.65
2022-11-04T23:30:13.485Z,6.18
2022-11-04T23:35:53.884Z,6.43
2022-11-04T23:41:17.881Z,6.00
2022-11-04T23:46:42.700Z,5.70
2022-11-04T23:52:03.292Z,6.90
2022-11-04T23:57:30.060Z,7.68
